createdAt,value
2023-05-15T00:00:52.631Z,101902.00
2023-05-15T00:03:22.506Z,101904.00
2023-05-15T00:05:57.881Z,101901.00
2023-05-15T00:08:28.512Z,101896.00
2023-05-15T00:11:01.592Z,101900.00
2023-05-15T00:13:32.262Z,101903.00
2023-05-15T00:16:01.241Z,101910.00
2023-05-15T00:18:33.479Z,101911.00
2023-05-15T00:21:04.256Z,101895.00
2023-05-15T00:23:32.949Z,101910.00
2023-05-15T00:26:01.581Z,101901.00
2023-05-15T00:28:30.301Z,101892.00
2023-05-15T00:30:59.066Z,101903.00
2023-05-15T00:33:27.785Z,101899.00
2023-05-15T00:35:56.835Z,101896.00
2023-05-15T00:38:28.063Z,101900.00
2023-05-15T00:40:57.961Z,101905.00
2023-05-15T00:43:28.237Z,101899.00
2023-05-15T00:46:04.735Z,101897.00
2023-05-15T00:48:36.392Z,101896.00
2023-05-15T00:51:05.315Z,101894.00
2023-05-15T00:53:35.379Z,101887.00
2023-05-15T00:56:07.317Z,101893.00
2023-05-15T00:58:38.027Z,101891.00
2023-05-15T01:01:09.662Z,101892.00
2023-05-15T01:03:43.236Z,101885.00
2023-05-15T01:06:14.509Z,101886.00
2023-05-15T01:08:49.056Z,101893.00
2023-05-15T01:11:19.309Z,101893.00
2023-05-15T01:13:48.242Z,101889.00
2023-05-15T01:16:16.933Z,101893.00
2023-05-15T01:18:46.709Z,101890.00
2023-05-15T01:21:54.204Z,101889.00
2023-05-15T01:24:46.846Z,101894.00
2023-05-15T01:27:23.563Z,101892.00
2023-05-15T01:30:06.578Z,101884.00
2023-05-15T01:32:59.340Z,101878.00
2023-05-15T01:35:42.387Z,101886.00
2023-05-15T01:38:23.271Z,101885.00
2023-05-15T01:41:03.283Z,101888.00
2023-05-15T01:43:37.273Z,101878.00
2023-05-15T01:46:11.201Z,101879.00
2023-05-15T01:48:45.046Z,101873.00
2023-05-15T01:51:17.204Z,101886.00
2023-05-15T01:53:50.431Z,101883.00
2023-05-15T01:56:25.662Z,101876.00
2023-05-15T01:59:00.229Z,101880.00
2023-05-15T02:01:34.087Z,101880.00
2023-05-15T02:04:05.439Z,101874.00
2023-05-15T02:06:35.549Z,101879.00
2023-05-15T02:09:06.595Z,101879.00
2023-05-15T02:11:36.623Z,101882.00
2023-05-15T02:14:10.154Z,101877.00
2023-05-15T02:16:39.013Z,101874.00
2023-05-15T02:19:10.409Z,101872.00
2023-05-15T02:21:39.214Z,101874.00
2023-05-15T02:24:08.685Z,101884.00
2023-05-15T02:26:55.316Z,101885.00
2023-05-15T02:29:40.246Z,101872.00
2023-05-15T02:32:22.360Z,101870.00
2023-05-15T02:35:02.988Z,101879.00
2023-05-15T02:37:36.972Z,101872.00
2023-05-15T02:40:11.645Z,101875.00
2023-05-15T02:42:43.717Z,101877.00
2023-05-15T02:45:16.106Z,101876.00
2023-05-15T02:47:45.614Z,101873.00
2023-05-15T02:50:17.253Z,101876.00
2023-05-15T02:52:46.792Z,101874.00
2023-05-15T02:55:17.786Z,101872.00
2023-05-15T02:57:47.120Z,101871.00
2023-05-15T03:00:18.370Z,101876.00
2023-05-15T03:02:47.122Z,101875.00
2023-05-15T03:05:15.805Z,101874.00
2023-05-15T03:07:45.492Z,101880.00
2023-05-15T03:10:15.928Z,101878.00
2023-05-15T03:12:45.107Z,101878.00
2023-05-15T03:15:14.043Z,101874.00
2023-05-15T03:17:44.835Z,101879.00
2023-05-15T03:20:15.261Z,101885.00
2023-05-15T03:22:47.510Z,101888.00
2023-05-15T03:25:19.468Z,101883.00
2023-05-15T03:27:51.397Z,101888.00
2023-05-15T03:30:22.107Z,101883.00
2023-05-15T03:32:53.655Z,101876.00
2023-05-15T03:35:26.310Z,101878.00
2023-05-15T03:37:55.420Z,101884.00
2023-05-15T03:40:27.945Z,101881.00
2023-05-15T03:42:56.595Z,101878.00
2023-05-15T03:45:25.673Z,101871.00
2023-05-15T03:47:56.218Z,101870.00
2023-05-15T03:50:25.345Z,101873.00
2023-05-15T03:52:54.584Z,101870.00
2023-05-15T03:55:23.579Z,101873.00
2023-05-15T03:57:52.492Z,101871.00
2023-05-15T04:00:22.225Z,101871.00
2023-05-15T04:03:03.157Z,101859.00
2023-05-15T04:05:34.179Z,101860.00
2023-05-15T04:08:12.627Z,101870.00
2023-05-15T04:10:52.149Z,101864.00
2023-05-15T04:13:24.464Z,101863.00
2023-05-15T04:15:55.471Z,101874.00
2023-05-15T04:18:28.432Z,101863.00
2023-05-15T04:21:01.943Z,101861.00
2023-05-15T04:23:35.028Z,101862.00
2023-05-15T04:26:10.777Z,101859.00
2023-05-15T04:28:52.425Z,101863.00
2023-05-15T04:31:36.107Z,101865.00
2023-05-15T04:34:08.621Z,101865.00
2023-05-15T04:36:40.576Z,101858.00
2023-05-15T04:39:16.822Z,101858.00
2023-05-15T04:41:49.399Z,101865.00
2023-05-15T04:44:19.465Z,101861.00
2023-05-15T04:46:52.971Z,101862.00
2023-05-15T04:49:27.628Z,101870.00
2023-05-15T04:51:58.932Z,101858.00
2023-05-15T04:54:30.372Z,101860.00
2023-05-15T04:57:02.671Z,101857.00
2023-05-15T04:59:39.491Z,101863.00
2023-05-15T05:02:14.551Z,101863.00
2023-05-15T05:04:45.830Z,101858.00
2023-05-15T05:07:14.583Z,101861.00
2023-05-15T05:09:43.646Z,101861.00
2023-05-15T05:12:12.469Z,101856.00
2023-05-15T05:14:42.300Z,101851.00
2023-05-15T05:17:11.548Z,101857.00
2023-05-15T05:19:40.315Z,101857.00
2023-05-15T05:22:10.560Z,101854.00
2023-05-15T05:24:39.290Z,101853.00
2023-05-15T05:27:08.152Z,101856.00
2023-05-15T05:29:37.036Z,101855.00
2023-05-15T05:32:07.666Z,101855.00
2023-05-15T05:34:36.694Z,101855.00
2023-05-15T05:37:06.452Z,101863.00
2023-05-15T05:39:36.964Z,101859.00
2023-05-15T05:42:06.656Z,101857.00
2023-05-15T05:44:35.452Z,101853.00
2023-05-15T05:47:04.298Z,101857.00
2023-05-15T05:49:33.022Z,101851.00
2023-05-15T05:52:08.582Z,101853.00
2023-05-15T05:54:38.688Z,101849.00
2023-05-15T05:57:07.790Z,101846.00
2023-05-15T05:59:37.400Z,101847.00
2023-05-15T06:02:06.597Z,101852.00
2023-05-15T06:04:35.573Z,101844.00
2023-05-15T06:07:04.718Z,101845.00
2023-05-15T06:09:33.447Z,101835.00
2023-05-15T06:12:04.934Z,101834.00
2023-05-15T06:14:33.788Z,101836.00
2023-05-15T06:17:03.146Z,101829.00
2023-05-15T06:19:31.896Z,101843.00
2023-05-15T06:22:00.594Z,101834.00
2023-05-15T06:24:29.383Z,101835.00
2023-05-15T06:26:58.378Z,101832.00
2023-05-15T06:29:28.793Z,101834.00
2023-05-15T06:31:57.752Z,101831.00
2023-05-15T06:34:26.486Z,101841.00
2023-05-15T06:36:55.119Z,101837.00
2023-05-15T06:39:23.986Z,101836.00
2023-05-15T06:41:58.012Z,101831.00
2023-05-15T06:44:28.175Z,101841.00
2023-05-15T06:46:56.913Z,101841.00
2023-05-15T06:49:26.324Z,101840.00
2023-05-15T06:51:55.774Z,101836.00
2023-05-15T06:54:24.580Z,101832.00
2023-05-15T06:56:53.268Z,101841.00
2023-05-15T06:59:21.967Z,101842.00
2023-05-15T07:01:52.061Z,101840.00
2023-05-15T07:04:21.139Z,101835.00
2023-05-15T07:06:49.784Z,101842.00
2023-05-15T07:09:18.514Z,101841.00
2023-05-15T07:11:47.256Z,101838.00
2023-05-15T07:14:16.011Z,101838.00
2023-05-15T07:16:45.363Z,101836.00
2023-05-15T07:19:19.551Z,101842.00
2023-05-15T07:21:48.446Z,101832.00
2023-05-15T07:24:17.106Z,101836.00
2023-05-15T07:26:57.542Z,101841.00
2023-05-15T07:29:27.952Z,101839.00
2023-05-15T07:31:56.822Z,101838.00
2023-05-15T07:34:26.995Z,101833.00
2023-05-15T07:36:55.666Z,101839.00
2023-05-15T07:39:24.424Z,101841.00
2023-05-15T07:41:53.115Z,101834.00
2023-05-15T07:44:21.720Z,101829.00
2023-05-15T07:46:50.362Z,101830.00
2023-05-15T07:49:19.070Z,101832.00
2023-05-15T07:51:49.414Z,101840.00
2023-05-15T07:54:18.145Z,101835.00
2023-05-15T07:56:46.856Z,101822.00
2023-05-15T07:59:15.650Z,101827.00
2023-05-15T08:01:44.434Z,101824.00
2023-05-15T08:04:13.825Z,101826.00
2023-05-15T08:06:44.352Z,101826.00
2023-05-15T08:09:14.791Z,101823.00
2023-05-15T08:11:43.415Z,101824.00
2023-05-15T08:14:13.813Z,101818.00
2023-05-15T08:16:42.844Z,101820.00
2023-05-15T08:19:11.696Z,101816.00
2023-05-15T08:21:40.966Z,101820.00
2023-05-15T08:24:09.936Z,101820.00
2023-05-15T08:26:40.030Z,101817.00
2023-05-15T08:29:08.681Z,101812.00
2023-05-15T08:31:37.423Z,101807.00
2023-05-15T08:34:06.157Z,101807.00
2023-05-15T08:36:35.927Z,101806.00
2023-05-15T08:39:06.290Z,101797.00
2023-05-15T08:41:43.497Z,101792.00
2023-05-15T08:44:14.388Z,101798.00
2023-05-15T08:46:43.467Z,101797.00
2023-05-15T08:49:23.117Z,101788.00
2023-05-15T08:51:52.217Z,101793.00
2023-05-15T08:54:21.227Z,101789.00
2023-05-15T08:56:51.652Z,101787.00
2023-05-15T08:59:20.652Z,101779.00
2023-05-15T09:01:49.922Z,101779.00
2023-05-15T09:04:18.669Z,101782.00
2023-05-15T09:06:49.388Z,101779.00
2023-05-15T09:09:19.765Z,101772.00
2023-05-15T09:11:52.220Z,101780.00
2023-05-15T09:14:21.240Z,101772.00
2023-05-15T09:16:53.578Z,101778.00
2023-05-15T09:19:22.725Z,101774.00
2023-05-15T09:21:51.714Z,101771.00
2023-05-15T09:24:24.542Z,101772.00
2023-05-15T09:27:06.380Z,101757.00
2023-05-15T09:29:37.180Z,101761.00
2023-05-15T09:32:09.164Z,101752.00
2023-05-15T09:34:40.043Z,101757.00
2023-05-15T09:37:11.010Z,101756.00
2023-05-15T09:39:43.988Z,101760.00
2023-05-15T09:42:16.099Z,101762.00
2023-05-15T09:44:46.784Z,101765.00
2023-05-15T09:47:17.617Z,101756.00
2023-05-15T09:49:47.486Z,101757.00
2023-05-15T09:52:18.425Z,101752.00
2023-05-15T09:54:50.324Z,101754.00
2023-05-15T09:57:24.368Z,101754.00
2023-05-15T09:59:53.460Z,101755.00
2023-05-15T10:02:28.232Z,101748.00
2023-05-15T10:04:57.971Z,101747.00
2023-05-15T10:07:31.341Z,101748.00
2023-05-15T10:10:01.256Z,101751.00
2023-05-15T10:12:36.847Z,101737.00
2023-05-15T10:15:07.690Z,101736.00
2023-05-15T10:17:37.733Z,101727.00
2023-05-15T10:20:11.932Z,101723.00
2023-05-15T10:22:46.486Z,101729.00
2023-05-15T10:25:24.798Z,101729.00
2023-05-15T10:27:56.519Z,101726.00
2023-05-15T10:30:26.577Z,101733.00
2023-05-15T10:32:57.131Z,101725.00
2023-05-15T10:35:29.196Z,101718.00
2023-05-15T10:37:59.408Z,101719.00
2023-05-15T10:40:31.915Z,101714.00
2023-05-15T10:43:02.992Z,101716.00
2023-05-15T10:45:32.780Z,101719.00
2023-05-15T10:48:03.417Z,101721.00
2023-05-15T10:50:32.362Z,101716.00
2023-05-15T10:53:02.067Z,101723.00
2023-05-15T10:55:32.972Z,101716.00
2023-05-15T10:58:03.330Z,101727.00
2023-05-15T11:00:32.452Z,101722.00
2023-05-15T11:03:02.365Z,101709.00
2023-05-15T11:05:51.706Z,101703.00
2023-05-15T11:08:27.541Z,101702.00
2023-05-15T11:10:56.388Z,101690.00
2023-05-15T11:13:26.708Z,101696.00
2023-05-15T11:15:57.319Z,101690.00
2023-05-15T11:18:27.591Z,101695.00
2023-05-15T11:21:09.833Z,101671.00
2023-05-15T11:23:43.038Z,101685.00
2023-05-15T11:26:14.581Z,101685.00
2023-05-15T11:28:47.208Z,101683.00
2023-05-15T11:31:16.140Z,101693.00
2023-05-15T11:33:44.939Z,101685.00
2023-05-15T11:36:16.025Z,101676.00
2023-05-15T11:38:45.482Z,101682.00
2023-05-15T11:41:27.633Z,101673.00
2023-05-15T11:44:02.371Z,101673.00
2023-05-15T11:46:33.567Z,101677.00
2023-05-15T11:49:02.621Z,101673.00
2023-05-15T11:51:33.507Z,101667.00
2023-05-15T11:54:05.695Z,101663.00
2023-05-15T11:56:35.134Z,101663.00
2023-05-15T11:59:05.574Z,101661.00
2023-05-15T12:01:42.437Z,101663.00
2023-05-15T12:04:16.505Z,101667.00
2023-05-15T12:06:48.540Z,101657.00
2023-05-15T12:09:19.484Z,101656.00
2023-05-15T12:11:53.542Z,101657.00
2023-05-15T12:14:29.896Z,101658.00
2023-05-15T12:17:03.087Z,101648.00
2023-05-15T12:19:33.468Z,101650.00
2023-05-15T12:22:04.417Z,101658.00
2023-05-15T12:24:33.204Z,101647.00
2023-05-15T12:27:02.254Z,101647.00
2023-05-15T12:29:33.258Z,101655.00
2023-05-15T12:32:02.396Z,101646.00
2023-05-15T12:34:31.413Z,101647.00
2023-05-15T12:37:00.930Z,101643.00
2023-05-15T12:39:29.944Z,101642.00
2023-05-15T12:41:59.893Z,101652.00
2023-05-15T12:44:29.446Z,101644.00
2023-05-15T12:46:59.840Z,101646.00
2023-05-15T12:49:29.684Z,101648.00
2023-05-15T12:51:59.020Z,101642.00
2023-05-15T12:54:29.141Z,101643.00
2023-05-15T12:56:58.310Z,101640.00
2023-05-15T12:59:28.129Z,101639.00
2023-05-15T13:01:58.383Z,101632.00
2023-05-15T13:04:27.514Z,101636.00
2023-05-15T13:06:56.440Z,101631.00
2023-05-15T13:09:26.484Z,101631.00
2023-05-15T13:11:57.067Z,101631.00
2023-05-15T13:14:29.058Z,101626.00
2023-05-15T13:17:02.855Z,101624.00
2023-05-15T13:19:31.666Z,101621.00
2023-05-15T13:22:01.797Z,101614.00
2023-05-15T13:24:31.415Z,101619.00
2023-05-15T13:27:00.224Z,101616.00
2023-05-15T13:29:28.860Z,101621.00
2023-05-15T13:31:58.978Z,101617.00
2023-05-15T13:34:27.648Z,101619.00
2023-05-15T13:36:57.903Z,101605.00
2023-05-15T13:39:26.624Z,101607.00
2023-05-15T13:41:55.758Z,101604.00
2023-05-15T13:44:24.453Z,101603.00
2023-05-15T13:46:53.197Z,101600.00
2023-05-15T13:49:23.307Z,101601.00
2023-05-15T13:51:52.030Z,101594.00
2023-05-15T13:54:20.728Z,101595.00
2023-05-15T13:56:49.389Z,101594.00
2023-05-15T13:59:19.647Z,101581.00
2023-05-15T14:01:49.032Z,101593.00
2023-05-15T14:04:17.719Z,101590.00
2023-05-15T14:06:48.076Z,101594.00
2023-05-15T14:09:17.480Z,101590.00
2023-05-15T14:11:46.138Z,101584.00
2023-05-15T14:14:14.764Z,101582.00
2023-05-15T14:16:43.645Z,101584.00
2023-05-15T14:19:12.405Z,101577.00
2023-05-15T14:21:41.379Z,101571.00
2023-05-15T14:24:11.659Z,101578.00
2023-05-15T14:26:40.399Z,101573.00
2023-05-15T14:29:09.352Z,101575.00
2023-05-15T14:31:39.664Z,101571.00
2023-05-15T14:34:08.523Z,101570.00
2023-05-15T14:36:37.358Z,101566.00
2023-05-15T14:39:06.325Z,101565.00
2023-05-15T14:41:36.937Z,101555.00
2023-05-15T14:44:05.969Z,101572.00
2023-05-15T14:46:36.575Z,101564.00
2023-05-15T14:49:05.925Z,101570.00
2023-05-15T14:51:34.609Z,101558.00
2023-05-15T14:54:05.029Z,101569.00
2023-05-15T14:56:35.580Z,101561.00
2023-05-15T14:59:04.374Z,101572.00
2023-05-15T15:01:33.346Z,101565.00
2023-05-15T15:04:02.166Z,101569.00
2023-05-15T15:06:31.861Z,101562.00
2023-05-15T15:09:00.532Z,101566.00
2023-05-15T15:11:29.185Z,101565.00
2023-05-15T15:13:59.214Z,101572.00
2023-05-15T15:16:28.345Z,101572.00
2023-05-15T15:18:59.002Z,101565.00
2023-05-15T15:21:27.817Z,101562.00
2023-05-15T15:23:56.448Z,101570.00
2023-05-15T15:26:25.129Z,101558.00
2023-05-15T15:28:55.296Z,101564.00
2023-05-15T15:31:27.371Z,101562.00
2023-05-15T15:33:57.758Z,101559.00
2023-05-15T15:36:26.898Z,101559.00
2023-05-15T15:38:55.606Z,101556.00
2023-05-15T15:41:24.568Z,101541.00
2023-05-15T15:43:55.661Z,101549.00
2023-05-15T15:46:25.891Z,101546.00
2023-05-15T15:48:54.669Z,101544.00
2023-05-15T15:51:23.426Z,101545.00
2023-05-15T15:53:52.131Z,101540.00
2023-05-15T15:56:21.340Z,101534.00
2023-05-15T15:58:50.104Z,101530.00
2023-05-15T16:01:18.823Z,101534.00
2023-05-15T16:03:48.868Z,101526.00
2023-05-15T16:06:18.549Z,101522.00
2023-05-15T16:08:47.315Z,101519.00
2023-05-15T16:11:17.058Z,101521.00
2023-05-15T16:13:45.782Z,101518.00
2023-05-15T16:16:14.624Z,101513.00
2023-05-15T16:18:44.833Z,101513.00
2023-05-15T16:21:15.964Z,101505.00
2023-05-15T16:23:45.509Z,101513.00
2023-05-15T16:26:14.494Z,101520.00
2023-05-15T16:28:43.184Z,101514.00
2023-05-15T16:31:12.039Z,101523.00
2023-05-15T16:33:40.918Z,101520.00
2023-05-15T16:36:10.243Z,101519.00
2023-05-15T16:38:40.315Z,101517.00
2023-05-15T16:41:09.228Z,101526.00
2023-05-15T16:43:38.818Z,101524.00
2023-05-15T16:46:08.113Z,101521.00
2023-05-15T16:48:38.059Z,101511.00
2023-05-15T16:51:07.229Z,101513.00
2023-05-15T16:53:35.984Z,101515.00
2023-05-15T16:56:06.929Z,101513.00
2023-05-15T16:58:36.765Z,101517.00
2023-05-15T17:01:05.517Z,101525.00
2023-05-15T17:03:34.516Z,101532.00
2023-05-15T17:06:03.522Z,101526.00
2023-05-15T17:08:38.859Z,101527.00
2023-05-15T17:11:12.009Z,101527.00
2023-05-15T17:13:41.000Z,101529.00
2023-05-15T17:16:09.912Z,101530.00
2023-05-15T17:18:40.234Z,101532.00
2023-05-15T17:21:09.052Z,101536.00
2023-05-15T17:23:37.864Z,101537.00
2023-05-15T17:26:06.697Z,101538.00
2023-05-15T17:28:40.401Z,101535.00
2023-05-15T17:31:12.739Z,101532.00
2023-05-15T17:33:41.588Z,101520.00
2023-05-15T17:36:10.910Z,101531.00
2023-05-15T17:38:39.954Z,101526.00
2023-05-15T17:41:08.968Z,101523.00
2023-05-15T17:43:51.711Z,101523.00
2023-05-15T17:46:20.541Z,101524.00
2023-05-15T17:48:49.353Z,101527.00
2023-05-15T17:51:18.054Z,101533.00
2023-05-15T17:53:52.923Z,101522.00
2023-05-15T17:56:24.122Z,101529.00
2023-05-15T17:58:54.593Z,101535.00
2023-05-15T18:01:23.345Z,101541.00
2023-05-15T18:03:52.164Z,101533.00
2023-05-15T18:06:21.119Z,101531.00
2023-05-15T18:08:51.603Z,101536.00
2023-05-15T18:11:23.514Z,101535.00
2023-05-15T18:13:54.250Z,101539.00
2023-05-15T18:16:23.850Z,101536.00
2023-05-15T18:18:53.520Z,101541.00
2023-05-15T18:21:23.137Z,101541.00
2023-05-15T18:23:52.667Z,101542.00
2023-05-15T18:26:22.071Z,101552.00
2023-05-15T18:28:50.940Z,101552.00
2023-05-15T18:31:21.336Z,101546.00
2023-05-15T18:33:53.189Z,101558.00
2023-05-15T18:36:22.877Z,101560.00
2023-05-15T18:38:52.004Z,101552.00
2023-05-15T18:41:23.407Z,101559.00
2023-05-15T18:43:52.907Z,101558.00
2023-05-15T18:46:25.868Z,101556.00
2023-05-15T18:48:54.841Z,101552.00
2023-05-15T18:51:24.979Z,101558.00
2023-05-15T18:53:53.679Z,101562.00
2023-05-15T18:56:25.136Z,101559.00
2023-05-15T18:58:55.259Z,101556.00
2023-05-15T19:01:26.047Z,101555.00
2023-05-15T19:03:55.116Z,101559.00
2023-05-15T19:06:26.764Z,101553.00
2023-05-15T19:08:58.767Z,101556.00
2023-05-15T19:11:28.736Z,101552.00
2023-05-15T19:13:57.646Z,101548.00
2023-05-15T19:16:28.992Z,101552.00
2023-05-15T19:19:00.694Z,101553.00
2023-05-15T19:21:30.062Z,101555.00
2023-05-15T19:23:59.292Z,101547.00
2023-05-15T19:26:28.711Z,101551.00
2023-05-15T19:28:58.342Z,101554.00
2023-05-15T19:31:31.857Z,101546.00
2023-05-15T19:34:02.968Z,101551.00
2023-05-15T19:36:32.639Z,101548.00
2023-05-15T19:39:03.597Z,101548.00
2023-05-15T19:41:33.134Z,101548.00
2023-05-15T19:44:03.003Z,101555.00
2023-05-15T19:46:34.111Z,101556.00
2023-05-15T19:49:04.868Z,101552.00
2023-05-15T19:51:35.140Z,101559.00
2023-05-15T19:54:03.998Z,101551.00
2023-05-15T19:56:32.998Z,101546.00
2023-05-15T19:59:02.702Z,101546.00
2023-05-15T20:01:31.594Z,101544.00
2023-05-15T20:04:01.991Z,101544.00
2023-05-15T20:06:30.992Z,101541.00
2023-05-15T20:09:03.439Z,101549.00
2023-05-15T20:11:33.182Z,101544.00
2023-05-15T20:14:01.998Z,101546.00
2023-05-15T20:16:31.809Z,101536.00
2023-05-15T20:19:02.436Z,101536.00
2023-05-15T20:21:56.852Z,101540.00
2023-05-15T20:24:26.451Z,101538.00
2023-05-15T20:26:55.185Z,101524.00
2023-05-15T20:29:25.734Z,101527.00
2023-05-15T20:31:54.664Z,101526.00
2023-05-15T20:34:25.040Z,101530.00
2023-05-15T20:36:54.532Z,101526.00
2023-05-15T20:39:23.396Z,101534.00
2023-05-15T20:41:52.942Z,101527.00
2023-05-15T20:44:21.643Z,101524.00
2023-05-15T20:46:50.643Z,101527.00
2023-05-15T20:49:19.331Z,101523.00
2023-05-15T20:51:50.164Z,101520.00
2023-05-15T20:54:18.977Z,101518.00
2023-05-15T20:56:47.759Z,101521.00
2023-05-15T20:59:16.641Z,101515.00
2023-05-15T21:01:45.504Z,101519.00
2023-05-15T21:04:14.294Z,101515.00
2023-05-15T21:06:43.042Z,101515.00
2023-05-15T21:09:15.603Z,101509.00
2023-05-15T21:11:45.688Z,101511.00
2023-05-15T21:14:14.696Z,101505.00
2023-05-15T21:16:43.508Z,101505.00
2023-05-15T21:19:12.365Z,101503.00
2023-05-15T21:21:41.051Z,101506.00
2023-05-15T21:24:58.721Z,101511.00
2023-05-15T21:27:29.205Z,101504.00
2023-05-15T21:29:58.808Z,101508.00
2023-05-15T21:32:27.816Z,101508.00
2023-05-15T21:34:56.503Z,101505.00
2023-05-15T21:37:25.251Z,101503.00
2023-05-15T21:39:53.931Z,101510.00
2023-05-15T21:42:23.286Z,101506.00
2023-05-15T21:44:53.266Z,101504.00
2023-05-15T21:47:21.971Z,101500.00
2023-05-15T21:49:51.077Z,101501.00
2023-05-15T21:52:19.779Z,101493.00
2023-05-15T21:54:48.494Z,101492.00
2023-05-15T21:57:17.184Z,101494.00
2023-05-15T21:59:46.155Z,101492.00
2023-05-15T22:02:16.311Z,101506.00
2023-05-15T22:04:45.043Z,101497.00
2023-05-15T22:07:14.907Z,101485.00
2023-05-15T22:09:45.142Z,101489.00
2023-05-15T22:12:13.816Z,101494.00
2023-05-15T22:14:54.726Z,101487.00
2023-05-15T22:17:30.529Z,101481.00
2023-05-15T22:20:07.375Z,101483.00
2023-05-15T22:22:37.652Z,101484.00
2023-05-15T22:25:07.915Z,101480.00
2023-05-15T22:27:36.802Z,101484.00
2023-05-15T22:30:12.878Z,101472.00
2023-05-15T22:32:43.508Z,101484.00
2023-05-15T22:35:13.427Z,101478.00
2023-05-15T22:37:42.469Z,101474.00
2023-05-15T22:40:15.994Z,101466.00
2023-05-15T22:42:50.440Z,101463.00
2023-05-15T22:45:19.842Z,101472.00
2023-05-15T22:47:51.790Z,101468.00
2023-05-15T22:50:20.717Z,101465.00
2023-05-15T22:52:49.503Z,101461.00
2023-05-15T22:55:18.443Z,101455.00
2023-05-15T22:57:47.183Z,101462.00
2023-05-15T23:01:04.211Z,101457.00
2023-05-15T23:03:34.791Z,101461.00
2023-05-15T23:06:34.655Z,101458.00
2023-05-15T23:09:04.728Z,101454.00
2023-05-15T23:11:33.796Z,101454.00
2023-05-15T23:14:03.206Z,101449.00
2023-05-15T23:16:32.727Z,101455.00
2023-05-15T23:19:03.460Z,101455.00
2023-05-15T23:21:32.697Z,101452.00
2023-05-15T23:24:01.763Z,101452.00
2023-05-15T23:26:30.789Z,101448.00
2023-05-15T23:28:59.756Z,101444.00
2023-05-15T23:31:29.183Z,101447.00
2023-05-15T23:33:58.065Z,101442.00
2023-05-15T23:36:28.529Z,101445.00
2023-05-15T23:38:57.557Z,101440.00
2023-05-15T23:41:27.309Z,101442.00
2023-05-15T23:43:56.290Z,101443.00
2023-05-15T23:46:25.285Z,101445.00
2023-05-15T23:48:54.376Z,101438.00
2023-05-15T23:51:23.412Z,101446.00
2023-05-15T23:53:53.760Z,101440.00
2023-05-15T23:56:23.890Z,101441.00
2023-05-15T23:58:52.841Z,101433.00
